Accueil
METAR-TAF:

METAR-TAF

Aéroports :

Koliganek, Alaska, États-Unis

latitude: 59-43-36N, longitude: 157-15-34W, altitude: 82 m

Observation

Le bulletin a été fait il y a 39 minutes, à 16:56 UTC
Vent 4 kt de nord
Température 12°C
Humidité 88%
Pression 1009 hPa
Visibilité: 9.7 km
Nuages fragmentés à une hauteur de 8500 ft
Ciel couvert à une hauteur de 11000 ft
brume

METAR: PAJZ 161656Z AUTO 01004KT 6SM BR BKN085 OVC110 12/10 A2980 RMK AO2 SLP097 T01220100 $

Heure: 09:35 (17:35 UTC)


TAF: absent

Observations et prévisions météorologiques de plus de 4000 aéroports (messages METAR et TAF).

Les stations disponibles sont représentées par des disques jaunes et rouges sur la carte.

Passer la souris dessus pour voir le nom de la station.

Cliquer dessus pour voir les observations et prévisions météorologiques.

Pour changer de carte: cliquez sur les boutons verts avec une croix noire pour zoomer, sur le bouton vert avec un tiret pour effectuer un zoom arrière, ou sur les flèches vertes pour les cartes adjacentes.


METAR-TAF: